Time;durP1;ratioP1;P1;durP2;ratioP2;P2;SDS_P1;SDS_P2;PMS_P1;PMS_P2;Temp;Humidity;BMP_temperature;BMP_pressure;BME280_temperature;BME280_humidity;BME280_pressure;Samples;Min_cycle;Max_cycle;Signal;HPM_P1;HPM_P2
2022/07/12 00:02:12;;;;;;;1999.90;999.90;;;15.70;99.90;;;;;;5084267;28;20532;-74
2022/07/12 00:04:38;;;;;;;1999.90;999.90;;;15.70;99.90;;;;;;5086377;28;20053;-73
2022/07/12 00:07:04;;;;;;;1999.90;999.90;;;15.70;99.90;;;;;;5071627;28;20162;-73
2022/07/12 00:09:30;;;;;;;1999.90;999.90;;;15.70;99.90;;;;;;5056569;28;20063;-73
2022/07/12 00:11:57;;;;;;;1999.90;999.90;;;15.70;99.90;;;;;;5053359;28;20028;-73
2022/07/12 00:14:22;;;;;;;1999.90;999.90;;;15.70;99.90;;;;;;5055083;28;20139;-73
2022/07/12 00:16:48;;;;;;;1999.90;999.90;;;15.70;99.90;;;;;;5080694;28;20154;-73
2022/07/12 00:19:14;;;;;;;1999.90;999.90;;;15.70;99.90;;;;;;5056927;28;20116;-74
2022/07/12 00:21:39;;;;;;;1999.90;999.90;;;15.60;99.90;;;;;;5056396;28;20051;-74
2022/07/12 00:24:05;;;;;;;1999.90;999.90;;;15.60;99.90;;;;;;5056864;28;20036;-74
2022/07/12 00:26:31;;;;;;;1999.90;999.90;;;15.60;99.90;;;;;;5065859;28;20044;-74
2022/07/12 00:28:57;;;;;;;1999.90;999.90;;;15.60;99.90;;;;;;5086372;28;20409;-74
2022/07/12 00:31:23;;;;;;;1999.90;999.90;;;15.60;99.90;;;;;;5059270;28;20469;-74
2022/07/12 00:33:49;;;;;;;1999.90;999.90;;;15.60;99.90;;;;;;5070799;28;20123;-73
2022/07/12 00:36:15;;;;;;;1999.90;999.90;;;15.60;99.90;;;;;;5085496;28;20051;-74
2022/07/12 00:38:40;;;;;;;1999.90;999.90;;;15.60;99.90;;;;;;5062549;28;20031;-74
2022/07/12 00:41:06;;;;;;;1999.90;999.90;;;15.60;99.90;;;;;;5051129;28;20081;-74
2022/07/12 00:43:32;;;;;;;1999.90;999.90;;;15.60;99.90;;;;;;5104994;28;20043;-74
2022/07/12 00:45:57;;;;;;;1999.90;999.90;;;15.50;99.90;;;;;;5074989;28;20033;-74
2022/07/12 00:48:24;;;;;;;1999.90;999.90;;;15.50;99.90;;;;;;5086294;28;20039;-74
2022/07/12 00:50:50;;;;;;;1999.90;999.90;;;15.50;99.90;;;;;;5056171;28;20520;-73
2022/07/12 00:53:18;;;;;;;1999.90;999.90;;;15.50;99.90;;;;;;5058398;28;20040;-73
2022/07/12 00:55:44;;;;;;;1999.90;999.90;;;15.50;99.90;;;;;;5073394;28;20531;-74
2022/07/12 00:58:09;;;;;;;1999.90;999.90;;;15.50;99.90;;;;;;5070435;28;20044;-73
2022/07/12 01:00:35;;;;;;;1999.90;999.90;;;15.50;99.90;;;;;;5073462;28;21514;-74
2022/07/12 01:03:02;;;;;;;1999.90;999.90;;;15.50;99.90;;;;;;5064910;28;20425;-73
2022/07/12 01:05:30;;;;;;;1999.90;999.90;;;15.50;99.90;;;;;;5050355;28;20044;-73
2022/07/12 01:07:56;;;;;;;1999.90;999.90;;;15.50;99.90;;;;;;5077620;28;20044;-74
2022/07/12 01:10:23;;;;;;;1999.90;999.90;;;15.50;99.90;;;;;;5086735;28;20048;-73
2022/07/12 01:12:49;;;;;;;1999.90;999.90;;;15.50;99.90;;;;;;5085408;28;20055;-73
2022/07/12 01:15:16;;;;;;;1999.90;999.90;;;15.50;99.90;;;;;;5070009;28;20047;-73
2022/07/12 01:17:44;;;;;;;1999.90;999.90;;;15.50;99.90;;;;;;5052870;28;20156;-73
2022/07/12 01:20:10;;;;;;;1999.90;999.90;;;15.50;99.90;;;;;;5069110;28;20047;-73
2022/07/12 01:22:41;;;;;;;1999.90;999.90;;;15.50;99.90;;;;;;5055583;28;20389;-74
2022/07/12 01:25:07;;;;;;;1999.90;999.90;;;15.50;99.90;;;;;;5085243;28;20102;-73
2022/07/12 01:27:33;;;;;;;1999.90;999.90;;;15.50;99.90;;;;;;5063259;28;20048;-73
2022/07/12 01:30:00;;;;;;;1999.90;999.90;;;15.50;99.90;;;;;;5086784;28;20403;-74
2022/07/12 01:32:26;;;;;;;1999.90;999.90;;;15.50;99.90;;;;;;5068748;28;20495;-74
2022/07/12 01:34:55;;;;;;;1999.90;999.90;;;15.50;99.90;;;;;;5068681;28;20448;-74
2022/07/12 01:37:22;;;;;;;1999.90;999.90;;;15.50;99.90;;;;;;5085737;28;20040;-73
2022/07/12 01:39:54;;;;;;;1999.90;999.90;;;15.50;99.90;;;;;;5066534;28;20044;-74
2022/07/12 01:42:21;;;;;;;1999.90;999.90;;;15.50;99.90;;;;;;5061572;28;20473;-74
2022/07/12 01:44:49;;;;;;;1999.90;999.90;;;15.40;99.90;;;;;;5070575;28;20089;-73
2022/07/12 01:47:17;;;;;;;1999.90;999.90;;;15.40;99.90;;;;;;5080180;28;20040;-73
2022/07/12 01:49:42;;;;;;;1999.90;999.90;;;15.40;99.90;;;;;;5103347;28;20058;-73
2022/07/12 01:52:08;;;;;;;1999.90;999.90;;;15.40;99.90;;;;;;5048027;28;20506;-73
2022/07/12 01:54:35;;;;;;;1999.90;999.90;;;15.40;99.90;;;;;;5086346;28;20406;-73
2022/07/12 01:57:02;;;;;;;1999.90;999.90;;;15.40;99.90;;;;;;5045471;28;20604;-74
2022/07/12 01:59:29;;;;;;;1999.90;999.90;;;15.40;99.90;;;;;;5069617;28;20047;-74
2022/07/12 02:01:56;;;;;;;1999.90;999.90;;;15.40;99.90;;;;;;5065952;28;20036;-74
2022/07/12 02:04:21;;;;;;;1999.90;999.90;;;15.40;99.90;;;;;;5060919;28;20044;-74
2022/07/12 02:06:48;;;;;;;1999.90;999.90;;;15.40;99.90;;;;;;5067861;28;20418;-74
2022/07/12 02:09:15;;;;;;;1999.90;999.90;;;15.40;99.90;;;;;;5068016;28;20040;-74
2022/07/12 02:11:41;;;;;;;1999.90;999.90;;;15.40;99.90;;;;;;5052047;28;20121;-74
2022/07/12 02:14:08;;;;;;;1999.90;999.90;;;15.40;99.90;;;;;;5067644;28;20068;-74
2022/07/12 02:16:34;;;;;;;1999.90;999.90;;;15.40;99.90;;;;;;5086491;28;20398;-74
2022/07/12 02:19:00;;;;;;;1999.90;999.90;;;15.40;99.90;;;;;;5088263;28;20044;-74
2022/07/12 02:21:26;;;;;;;1999.90;999.90;;;15.30;99.90;;;;;;5050937;28;20047;-74
2022/07/12 02:23:52;;;;;;;1999.90;999.90;;;15.30;99.90;;;;;;5070833;28;20044;-74
2022/07/12 02:26:18;;;;;;;1999.90;999.90;;;15.30;99.90;;;;;;5076587;28;20043;-74
2022/07/12 02:28:43;;;;;;;1999.90;999.90;;;15.30;99.90;;;;;;5088170;28;20047;-74
2022/07/12 02:31:09;;;;;;;1999.90;999.90;;;15.30;99.90;;;;;;5068929;28;20190;-74
2022/07/12 02:33:35;;;;;;;1999.90;999.90;;;15.20;99.90;;;;;;5085940;28;20040;-73
2022/07/12 02:36:01;;;;;;;1999.90;999.90;;;15.20;99.90;;;;;;5061619;28;20032;-74
2022/07/12 02:38:27;;;;;;;1999.90;999.90;;;15.20;99.90;;;;;;5070768;28;20118;-74
2022/07/12 02:40:53;;;;;;;1999.90;999.90;;;15.20;99.90;;;;;;5052737;28;20127;-74
2022/07/12 02:43:26;;;;;;;1999.90;999.90;;;15.20;99.90;;;;;;5085856;28;20108;-73
2022/07/12 02:45:54;;;;;;;1999.90;999.90;;;15.10;99.90;;;;;;5048086;28;20095;-74
2022/07/12 02:48:19;;;;;;;1999.90;999.90;;;15.10;99.90;;;;;;5053097;28;20587;-74
2022/07/12 02:50:46;;;;;;;1999.90;999.90;;;15.10;99.90;;;;;;5071568;28;20043;-73
2022/07/12 02:53:12;;;;;;;1999.90;999.90;;;15.00;99.90;;;;;;5048973;28;20044;-74
2022/07/12 02:55:38;;;;;;;1999.90;999.90;;;15.00;99.90;;;;;;5063087;28;20071;-74
2022/07/12 02:58:07;;;;;;;1999.90;999.90;;;15.00;99.90;;;;;;5055829;28;20032;-73
2022/07/12 03:00:34;;;;;;;1999.90;999.90;;;15.00;99.90;;;;;;5056579;28;20040;-74
2022/07/12 03:03:00;;;;;;;1999.90;999.90;;;15.00;99.90;;;;;;5059102;28;20044;-74
2022/07/12 03:05:26;;;;;;;1999.90;999.90;;;15.00;99.90;;;;;;5106316;28;20052;-74
2022/07/12 03:07:52;;;;;;;1999.90;999.90;;;14.90;99.90;;;;;;5071936;28;20047;-74
2022/07/12 03:10:17;;;;;;;1999.90;999.90;;;14.90;99.90;;;;;;5063802;28;20048;-73
2022/07/12 03:12:43;;;;;;;1999.90;999.90;;;14.90;99.90;;;;;;5099590;28;20048;-74
2022/07/12 03:15:09;;;;;;;1999.90;999.90;;;14.90;99.90;;;;;;5070733;28;20161;-73
2022/07/12 03:17:35;;;;;;;1999.90;999.90;;;14.80;99.90;;;;;;5070025;28;20443;-74
2022/07/12 03:20:02;;;;;;;1999.90;999.90;;;14.90;99.90;;;;;;5055967;28;20043;-74
2022/07/12 03:22:28;;;;;;;1999.90;999.90;;;14.90;99.90;;;;;;5058416;28;20039;-74
2022/07/12 03:24:53;;;;;;;1999.90;999.90;;;14.80;99.90;;;;;;5055248;28;20451;-73
2022/07/12 03:27:19;;;;;;;1999.90;999.90;;;14.80;99.90;;;;;;5073326;28;20488;-74
2022/07/12 03:29:44;;;;;;;1999.90;999.90;;;14.90;99.90;;;;;;5066441;28;20044;-74
2022/07/12 03:32:10;;;;;;;1999.90;999.90;;;14.90;99.90;;;;;;5072295;28;20036;-74
2022/07/12 03:34:36;;;;;;;1999.90;999.90;;;14.90;99.90;;;;;;5088898;28;20517;-74
2022/07/12 03:37:03;;;;;;;1999.90;999.90;;;14.90;99.90;;;;;;5040658;28;20118;-74
2022/07/12 03:39:29;;;;;;;1999.90;999.90;;;14.80;99.90;;;;;;5055545;28;20051;-74
2022/07/12 03:41:55;;;;;;;1999.90;999.90;;;14.80;99.90;;;;;;5050947;28;20075;-74
2022/07/12 03:44:21;;;;;;;1999.90;999.90;;;14.80;99.90;;;;;;5070601;28;20046;-74
2022/07/12 03:46:47;;;;;;;1999.90;999.90;;;14.80;99.90;;;;;;5071064;28;20519;-74
2022/07/12 03:49:13;;;;;;;1999.90;999.90;;;14.80;99.90;;;;;;5070237;28;20044;-73
2022/07/12 03:51:39;;;;;;;1999.90;999.90;;;14.80;99.90;;;;;;5097310;28;20517;-74
2022/07/12 03:54:08;;;;;;;1999.90;999.90;;;14.80;99.90;;;;;;5103329;28;20054;-74
2022/07/12 03:59:19;;;;;;;1999.90;999.90;;;14.80;99.90;;;;;;5069293;28;20047;-74
2022/07/12 04:01:45;;;;;;;1999.90;999.90;;;14.80;99.90;;;;;;5071221;28;20036;-74
2022/07/12 04:04:10;;;;;;;1999.90;999.90;;;14.80;99.90;;;;;;5070961;28;20125;-74
2022/07/12 04:06:36;;;;;;;1999.90;999.90;;;14.90;99.90;;;;;;5053955;28;20043;-74
2022/07/12 04:09:02;;;;;;;1999.90;999.90;;;14.90;99.90;;;;;;5053226;28;20047;-74
2022/07/12 04:11:28;;;;;;;1999.90;999.90;;;14.80;99.90;;;;;;5078650;28;20040;-74
2022/07/12 04:13:54;;;;;;;1999.90;999.90;;;14.80;99.90;;;;;;5069574;28;20040;-74
2022/07/12 04:16:19;;;;;;;1999.90;999.90;;;14.80;99.90;;;;;;5086934;28;20040;-74
2022/07/12 04:18:45;;;;;;;1999.90;999.90;;;14.80;99.90;;;;;;5070944;28;20046;-74
2022/07/12 04:21:12;;;;;;;1999.90;999.90;;;14.80;99.90;;;;;;5069367;28;20390;-74
2022/07/12 04:23:37;;;;;;;1999.90;999.90;;;14.90;99.90;;;;;;5070211;28;20052;-74
2022/07/12 04:26:03;;;;;;;1999.90;999.90;;;14.90;99.90;;;;;;5069215;28;20109;-74
2022/07/12 04:28:29;;;;;;;1999.90;999.90;;;14.80;99.90;;;;;;5072945;28;20044;-74
2022/07/12 04:30:54;;;;;;;1999.90;999.90;;;14.80;99.90;;;;;;5067226;28;20579;-74
2022/07/12 04:33:20;;;;;;;1999.90;999.90;;;14.80;99.90;;;;;;5059146;28;20040;-74
2022/07/12 04:35:46;;;;;;;1999.90;999.90;;;14.70;99.90;;;;;;5070773;28;20071;-74
2022/07/12 04:38:12;;;;;;;1999.90;999.90;;;14.70;99.90;;;;;;5055167;28;20035;-74
2022/07/12 04:40:37;;;;;;;1999.90;999.90;;;14.70;99.90;;;;;;5071383;28;20083;-74
2022/07/12 04:43:03;;;;;;;1999.90;999.90;;;14.80;99.90;;;;;;5052651;28;20055;-74
2022/07/12 04:45:28;;;;;;;1999.90;999.90;;;14.80;99.90;;;;;;5054311;28;20048;-74
2022/07/12 04:47:54;;;;;;;1999.90;999.90;;;14.90;99.90;;;;;;5066710;28;20036;-74
2022/07/12 04:50:20;;;;;;;1999.90;999.90;;;15.00;99.90;;;;;;5087994;28;20047;-74
2022/07/12 04:52:45;;;;;;;1999.90;999.90;;;15.00;99.90;;;;;;5067833;28;20051;-74
2022/07/12 04:55:11;;;;;;;1999.90;999.90;;;15.10;99.90;;;;;;5087574;28;20556;-74
2022/07/12 04:57:37;;;;;;;1999.90;999.90;;;15.10;99.90;;;;;;5053078;28;20039;-74
2022/07/12 05:00:07;;;;;;;1999.90;999.90;;;15.10;99.90;;;;;;5101560;28;20109;-74
2022/07/12 05:02:33;;;;;;;1999.90;999.90;;;15.10;99.90;;;;;;5069573;28;20468;-74
2022/07/12 05:04:59;;;;;;;1999.90;999.90;;;15.10;99.90;;;;;;5103965;28;20050;-74
2022/07/12 05:07:25;;;;;;;1999.90;999.90;;;15.10;99.90;;;;;;5070658;28;20039;-74
2022/07/12 05:09:51;;;;;;;1999.90;999.90;;;15.10;99.90;;;;;;5104660;28;20097;-74
2022/07/12 05:12:20;;;;;;;1999.90;999.90;;;15.10;99.90;;;;;;5086129;28;20123;-74
2022/07/12 05:14:46;;;;;;;1999.90;999.90;;;15.20;99.90;;;;;;5066949;28;20097;-74
2022/07/12 05:17:11;;;;;;;1999.90;999.90;;;15.40;99.90;;;;;;5063824;28;20435;-74
2022/07/12 05:19:37;;;;;;;1999.90;999.90;;;15.60;99.90;;;;;;5066916;28;20046;-74
2022/07/12 05:22:03;;;;;;;1999.90;999.90;;;15.70;99.90;;;;;;5062951;28;20116;-74
2022/07/12 05:24:29;;;;;;;1999.90;999.90;;;15.80;99.90;;;;;;5097929;28;20462;-74
2022/07/12 05:26:55;;;;;;;1999.90;999.90;;;15.90;99.90;;;;;;5052984;28;20075;-74
2022/07/12 05:29:21;;;;;;;1999.90;999.90;;;16.00;99.90;;;;;;5068203;28;20039;-74
2022/07/12 05:31:46;;;;;;;1999.90;999.90;;;15.90;99.90;;;;;;5082918;28;20102;-74
2022/07/12 05:34:12;;;;;;;1999.90;999.90;;;15.90;99.90;;;;;;5080174;28;20051;-74
2022/07/12 05:36:38;;;;;;;1999.90;999.90;;;15.90;99.90;;;;;;5070984;28;20109;-74
2022/07/12 05:39:04;;;;;;;1999.90;999.90;;;15.90;99.90;;;;;;5101037;28;20452;-74
2022/07/12 05:41:29;;;;;;;1999.90;999.90;;;16.00;99.90;;;;;;5086336;28;20087;-74
2022/07/12 05:43:55;;;;;;;1999.90;999.90;;;16.10;99.90;;;;;;5065352;28;20052;-74
2022/07/12 05:46:21;;;;;;;1999.90;999.90;;;16.20;99.90;;;;;;5069873;28;20450;-74
2022/07/12 05:48:46;;;;;;;1999.90;999.90;;;16.30;99.90;;;;;;5055381;28;20645;-74
2022/07/12 05:53:56;;;;;;;1999.90;999.90;;;16.50;99.90;;;;;;5066408;28;20490;-74
2022/07/12 05:56:22;;;;;;;1999.90;999.90;;;16.60;99.90;;;;;;5086528;28;20043;-74
2022/07/12 05:58:47;;;;;;;1999.90;999.90;;;16.60;99.90;;;;;;5085343;28;20101;-74
2022/07/12 06:01:13;;;;;;;1999.90;999.90;;;16.70;99.90;;;;;;5075435;28;20097;-74
2022/07/12 06:03:39;;;;;;;1999.90;999.90;;;16.80;99.90;;;;;;5052787;28;20046;-74
2022/07/12 06:06:05;;;;;;;1999.90;999.90;;;17.00;99.90;;;;;;5069960;28;20040;-74
2022/07/12 06:08:30;;;;;;;1999.90;999.90;;;17.10;99.90;;;;;;5087209;28;20040;-74
2022/07/12 06:10:56;;;;;;;1999.90;999.90;;;17.20;99.90;;;;;;5082479;28;20456;-74
2022/07/12 06:13:22;;;;;;;1999.90;999.90;;;17.30;99.90;;;;;;5041434;28;20040;-74
2022/07/12 06:15:48;;;;;;;1999.90;999.90;;;17.40;99.90;;;;;;5055743;28;20131;-75
2022/07/12 06:18:14;;;;;;;1999.90;999.90;;;17.40;99.90;;;;;;5093523;28;20043;-75
2022/07/12 06:20:39;;;;;;;1999.90;999.90;;;17.50;99.90;;;;;;5104569;28;20047;-75
2022/07/12 06:23:05;;;;;;;1999.90;999.90;;;17.60;99.90;;;;;;5060049;28;20080;-74
2022/07/12 06:25:31;;;;;;;1999.90;999.90;;;17.70;99.90;;;;;;5053790;28;20115;-75
2022/07/12 06:28:00;;;;;;;1999.90;999.90;;;17.80;99.90;;;;;;5090790;28;20036;-75
2022/07/12 06:30:25;;;;;;;1999.90;999.90;;;18.00;99.90;;;;;;5091839;28;20470;-74
2022/07/12 06:32:51;;;;;;;1999.90;999.90;;;18.20;99.90;;;;;;5086318;28;20054;-75
2022/07/12 06:35:17;;;;;;;1999.90;999.90;;;18.30;99.90;;;;;;5072623;28;20043;-75
2022/07/12 06:37:43;;;;;;;1999.90;999.90;;;18.50;99.90;;;;;;5054319;28;20078;-75
2022/07/12 06:40:10;;;;;;;1999.90;999.90;;;19.00;99.90;;;;;;5091886;28;20040;-75
2022/07/12 06:42:35;;;;;;;1999.90;999.90;;;19.60;99.90;;;;;;5086797;28;20055;-75
2022/07/12 06:45:01;;;;;;;1999.90;999.90;;;20.20;99.90;;;;;;5067676;28;20046;-75
2022/07/12 06:47:27;;;;;;;1999.90;999.90;;;20.70;99.90;;;;;;5055539;28;20490;-75
2022/07/12 06:49:53;;;;;;;1999.90;999.90;;;21.10;99.90;;;;;;5073130;28;20075;-74
2022/07/12 06:52:19;;;;;;;1999.90;999.90;;;21.50;99.90;;;;;;5088535;28;20074;-75
2022/07/12 06:54:44;;;;;;;1999.90;999.90;;;22.10;99.90;;;;;;5078851;28;20046;-75
2022/07/12 06:57:10;;;;;;;1999.90;999.90;;;22.80;99.90;;;;;;5078751;28;20500;-75
2022/07/12 06:59:36;;;;;;;1999.90;999.90;;;23.30;99.90;;;;;;5067966;28;20036;-75
2022/07/12 07:02:02;;;;;;;1999.90;999.90;;;23.50;99.90;;;;;;5105824;28;20036;-75
2022/07/12 07:04:28;;;;;;;1999.90;999.90;;;23.60;99.90;;;;;;5055731;28;20113;-75
2022/07/12 07:06:53;;;;;;;1999.90;999.90;;;23.30;99.90;;;;;;5069874;28;20082;-74
2022/07/12 07:09:19;;;;;;;1999.90;999.90;;;23.00;99.90;;;;;;5090390;28;20075;-75
2022/07/12 07:11:45;;;;;;;1999.90;999.90;;;22.90;99.90;;;;;;5071881;28;20097;-75
2022/07/12 07:14:11;;;;;;;1999.90;999.90;;;23.00;99.90;;;;;;5087947;28;20051;-75
2022/07/12 07:16:37;;;;;;;1999.90;999.90;;;23.20;99.90;;;;;;5076228;28;20116;-75
2022/07/12 07:19:03;;;;;;;1999.90;999.90;;;23.40;99.90;;;;;;5096566;28;20043;-75
2022/07/12 07:21:29;;;;;;;1999.90;999.90;;;23.60;99.90;;;;;;5077463;28;20082;-75
2022/07/12 07:23:55;;;;;;;1999.90;999.90;;;23.70;99.90;;;;;;5072677;28;20076;-74
2022/07/12 07:26:21;;;;;;;1999.90;999.90;;;23.70;99.90;;;;;;5070632;28;20362;-75
2022/07/12 07:31:35;;;;;;;1999.90;999.90;;;24.10;99.90;;;;;;5072298;28;20032;-75
2022/07/12 07:34:01;;;;;;;1999.90;999.90;;;24.50;99.90;;;;;;5101343;28;20127;-74
2022/07/12 07:36:26;;;;;;;1999.90;999.90;;;24.90;99.90;;;;;;5103619;28;20128;-75
2022/07/12 07:38:52;;;;;;;1999.90;999.90;;;24.90;99.90;;;;;;5053197;28;20394;-74
2022/07/12 07:41:18;;;;;;;1999.90;999.90;;;24.70;99.90;;;;;;5113855;27;20144;-75
2022/07/12 07:43:43;;;;;;;1999.90;999.90;;;24.20;99.90;;;;;;5069773;28;20039;-75
2022/07/12 07:46:09;;;;;;;1999.90;999.90;;;24.00;99.90;;;;;;5071558;28;20047;-74
2022/07/12 07:48:34;;;;;;;1999.90;999.90;;;24.00;99.90;;;;;;5092998;28;20697;-75
2022/07/12 07:51:00;;;;;;;1999.90;999.90;;;24.30;99.90;;;;;;5069795;28;20044;-75
2022/07/12 07:53:26;;;;;;;1999.90;999.90;;;24.30;99.90;;;;;;5059744;28;20105;-74
2022/07/12 07:55:51;;;;;;;1999.90;999.90;;;24.30;99.90;;;;;;5055725;28;20032;-74
2022/07/12 07:58:17;;;;;;;1999.90;999.90;;;24.20;99.90;;;;;;5088973;28;20036;-74
2022/07/12 08:00:43;;;;;;;1999.90;999.90;;;24.30;99.90;;;;;;5065319;28;20090;-75
2022/07/12 08:03:08;;;;;;;1999.90;999.90;;;24.30;99.90;;;;;;5074511;28;20043;-75
2022/07/12 08:05:34;;;;;;;1999.90;999.90;;;24.20;99.90;;;;;;5058879;28;20040;-75
2022/07/12 08:08:00;;;;;;;1999.90;999.90;;;24.00;99.90;;;;;;5058125;28;20071;-75
2022/07/12 08:10:26;;;;;;;1999.90;999.90;;;23.90;99.90;;;;;;5084573;28;20118;-75
2022/07/12 08:12:52;;;;;;;1999.90;999.90;;;23.60;99.90;;;;;;5078035;28;20131;-75
2022/07/12 08:15:17;;;;;;;1999.90;999.90;;;23.50;99.90;;;;;;5086942;28;20182;-75
2022/07/12 08:17:43;;;;;;;1999.90;999.90;;;23.20;99.90;;;;;;5088094;28;20568;-75
2022/07/12 08:20:09;;;;;;;1999.90;999.90;;;23.30;99.90;;;;;;5073038;28;20053;-75
2022/07/12 08:22:45;;;;;;;1999.90;999.90;;;23.30;99.90;;;;;;5058182;28;20398;-75
2022/07/12 08:25:12;;;;;;;1999.90;999.90;;;23.30;99.90;;;;;;5090361;28;20476;-75
2022/07/12 08:27:38;;;;;;;1999.90;999.90;;;23.40;99.90;;;;;;5087667;28;20058;-75
2022/07/12 08:30:04;;;;;;;1999.90;999.90;;;23.60;99.90;;;;;;5105285;28;20040;-75
2022/07/12 08:32:30;;;;;;;1999.90;999.90;;;23.80;99.90;;;;;;5091466;28;20545;-75
2022/07/12 08:34:56;;;;;;;1999.90;999.90;;;24.00;99.90;;;;;;5094882;28;20123;-74
2022/07/12 08:37:21;;;;;;;1999.90;999.90;;;24.10;99.90;;;;;;5078691;28;20059;-74
2022/07/12 08:39:47;;;;;;;1999.90;999.90;;;24.00;99.90;;;;;;5067542;28;20044;-74
2022/07/12 08:42:16;;;;;;;1999.90;999.90;;;24.00;99.90;;;;;;5104483;28;20872;-75
2022/07/12 08:44:44;;;;;;;1999.90;999.90;;;24.30;99.90;;;;;;5067438;28;20075;-75
2022/07/12 08:47:10;;;;;;;1999.90;999.90;;;24.70;99.90;;;;;;5071260;28;20528;-75
2022/07/12 08:49:37;;;;;;;1999.90;999.90;;;25.00;99.90;;;;;;5076929;28;20047;-75
2022/07/12 08:52:26;;;;;;;1999.90;999.90;;;25.30;99.90;;;;;;5065899;28;20032;-75
2022/07/12 08:54:52;;;;;;;1999.90;999.90;;;25.60;99.90;;;;;;5068214;28;20102;-75
2022/07/12 08:57:30;;;;;;;1999.90;999.90;;;25.80;99.90;;;;;;5053478;28;20542;-75
2022/07/12 09:00:00;;;;;;;1999.90;999.90;;;26.00;99.90;;;;;;5094700;28;20123;-75
2022/07/12 09:02:26;;;;;;;1999.90;999.90;;;26.30;99.90;;;;;;5067210;28;20051;-75
2022/07/12 09:05:09;;;;;;;1999.90;999.90;;;26.40;99.90;;;;;;5064238;28;20505;-75
2022/07/12 09:07:36;;;;;;;1999.90;999.90;;;26.30;99.90;;;;;;5072147;28;20121;-75
2022/07/12 09:10:09;;;;;;;1999.90;999.90;;;26.20;99.90;;;;;;5052748;28;20153;-75
2022/07/12 09:12:35;;;;;;;1999.90;999.90;;;26.40;99.90;;;;;;5057981;28;20406;-74
2022/07/12 09:15:12;;;;;;;1999.90;999.90;;;26.50;99.90;;;;;;5082854;28;20056;-74
2022/07/12 09:17:38;;;;;;;1999.90;999.90;;;26.40;99.90;;;;;;5066869;28;20048;-74
2022/07/12 09:20:04;;;;;;;1999.90;999.90;;;26.20;99.90;;;;;;5087807;28;20043;-75
2022/07/12 09:22:30;;;;;;;1999.90;999.90;;;26.20;99.90;;;;;;5099998;28;20044;-75
2022/07/12 09:24:56;;;;;;;1999.90;999.90;;;26.30;99.90;;;;;;5097865;28;20242;-74
2022/07/12 09:27:25;;;;;;;1999.90;999.90;;;26.30;99.90;;;;;;5085910;28;20375;-74
2022/07/12 09:29:51;;;;;;;1999.90;999.90;;;26.30;99.90;;;;;;5054443;28;20039;-74
2022/07/12 09:37:47;;;;;;;1999.90;999.90;;;26.20;99.90;;;;;;5066793;28;20402;-74
2022/07/12 09:40:13;;;;;;;1999.90;999.90;;;26.10;99.90;;;;;;5053527;28;20066;-74
2022/07/12 09:42:40;;;;;;;1999.90;999.90;;;25.90;99.90;;;;;;5070260;28;20059;-74
2022/07/12 09:45:07;;;;;;;1999.90;999.90;;;25.70;99.90;;;;;;5073987;28;20086;-74
2022/07/12 09:47:33;;;;;;;1999.90;999.90;;;25.90;99.90;;;;;;5103534;28;20036;-74
2022/07/12 09:49:59;;;;;;;1999.90;999.90;;;26.00;99.90;;;;;;5101437;28;20050;-74
2022/07/12 09:52:26;;;;;;;1999.90;999.90;;;26.10;99.90;;;;;;5068175;28;20036;-74
2022/07/12 09:54:54;;;;;;;1999.90;999.90;;;26.40;99.90;;;;;;5070391;28;20036;-74
2022/07/12 09:57:31;;;;;;;1999.90;999.90;;;26.80;99.90;;;;;;5070299;28;20389;-74
2022/07/12 10:00:03;;;;;;;1999.90;999.90;;;27.50;99.90;;;;;;5076609;28;20094;-74
2022/07/12 10:02:29;;;;;;;1999.90;999.90;;;28.00;99.90;;;;;;5107915;28;20118;-75
2022/07/12 10:04:55;;;;;;;1999.90;999.90;;;27.90;99.80;;;;;;5077324;28;20115;-75
2022/07/12 10:07:21;;;;;;;1999.90;999.90;;;27.50;99.50;;;;;;5067750;28;20040;-74
2022/07/12 10:09:50;;;;;;;1999.90;999.90;;;27.50;99.80;;;;;;5110652;28;20043;-75
2022/07/12 10:12:18;;;;;;;1999.90;999.90;;;27.50;99.20;;;;;;5063019;28;20722;-74
2022/07/12 10:14:45;;;;;;;1999.90;999.90;;;27.50;96.80;;;;;;5072382;28;20040;-75
2022/07/12 10:17:12;;;;;;;1999.90;999.90;;;27.50;97.70;;;;;;5051398;28;20047;-74
2022/07/12 10:19:39;;;;;;;1999.90;999.90;;;27.30;96.90;;;;;;5106674;28;20535;-75
2022/07/12 10:22:06;;;;;;;1999.90;999.90;;;27.20;98.70;;;;;;5110843;27;20042;-74
2022/07/12 10:24:32;;;;;;;1999.90;999.90;;;27.20;97.40;;;;;;5105893;28;20052;-75
2022/07/12 10:27:13;;;;;;;1999.90;999.90;;;27.10;97.30;;;;;;5110942;28;20043;-75
2022/07/12 10:29:43;;;;;;;1999.90;999.90;;;27.00;97.00;;;;;;5069488;28;20079;-74
2022/07/12 10:32:41;;;;;;;1999.90;999.90;;;26.80;98.90;;;;;;5087944;28;20099;-75
2022/07/12 10:35:13;;;;;;;1999.90;999.90;;;26.60;99.50;;;;;;5074599;28;20036;-74
2022/07/12 10:37:39;;;;;;;1999.90;999.90;;;26.60;99.00;;;;;;5109285;28;20070;-74
2022/07/12 10:40:15;;;;;;;1999.90;999.90;;;26.70;98.20;;;;;;5105239;27;20071;-74
2022/07/12 10:43:00;;;;;;;1999.90;999.90;;;26.80;98.30;;;;;;5075776;28;20501;-74
2022/07/12 10:45:33;;;;;;;1999.90;999.90;;;27.00;98.40;;;;;;5057196;28;20123;-74
2022/07/12 10:48:04;;;;;;;1999.90;999.90;;;27.30;98.60;;;;;;5070713;28;20561;-74
2022/07/12 10:50:45;;;;;;;1999.90;999.90;;;27.50;97.30;;;;;;5107154;28;20501;-74
2022/07/12 10:53:40;;;;;;;1999.90;999.90;;;27.50;97.20;;;;;;5105994;28;20556;-74
2022/07/12 10:56:22;;;;;;;1999.90;999.90;;;27.60;97.00;;;;;;5059449;28;20045;-74
2022/07/12 10:58:54;;;;;;;1999.90;999.90;;;27.70;96.30;;;;;;5060743;28;20059;-74
2022/07/12 11:01:31;;;;;;;1999.90;999.90;;;27.80;96.40;;;;;;5073091;28;20036;-75
2022/07/12 11:04:08;;;;;;;1999.90;999.90;;;27.80;96.90;;;;;;5084907;28;20391;-75
2022/07/12 11:06:39;;;;;;;1999.90;999.90;;;27.90;96.20;;;;;;5073094;28;20450;-75
2022/07/12 11:09:07;;;;;;;1999.90;999.90;;;28.10;96.30;;;;;;5043516;28;20044;-74
2022/07/12 11:11:44;;;;;;;1999.90;999.90;;;28.30;95.80;;;;;;5089566;28;20036;-75
2022/07/12 11:14:11;;;;;;;1999.90;999.90;;;28.30;95.00;;;;;;5056054;28;20049;-75
2022/07/12 11:16:47;;;;;;;1999.90;999.90;;;28.30;95.20;;;;;;5095724;28;20109;-75
2022/07/12 11:19:14;;;;;;;1999.90;999.90;;;28.40;93.80;;;;;;5056892;28;20047;-75
2022/07/12 11:21:43;;;;;;;1999.90;999.90;;;28.50;94.90;;;;;;5062207;28;20047;-74
2022/07/12 11:24:20;;;;;;;1999.90;999.90;;;28.70;92.00;;;;;;5066212;28;20583;-75
2022/07/12 11:26:47;;;;;;;1999.90;999.90;;;28.50;90.10;;;;;;5059509;28;20399;-75
2022/07/12 11:29:13;;;;;;;1999.90;999.90;;;28.30;91.20;;;;;;5059426;28;20368;-75
2022/07/12 11:31:38;;;;;;;1999.90;999.90;;;28.10;90.70;;;;;;5078526;28;20051;-75
2022/07/12 11:34:04;;;;;;;1999.90;999.90;;;27.90;90.40;;;;;;5082878;28;20505;-74
2022/07/12 11:36:30;;;;;;;1999.90;999.90;;;27.70;90.10;;;;;;5077706;28;20552;-75
2022/07/12 11:38:56;;;;;;;1999.90;999.90;;;27.50;90.30;;;;;;5054133;28;20090;-75
2022/07/12 11:41:23;;;;;;;1999.90;999.90;;;27.50;91.70;;;;;;5076514;28;20052;-74
2022/07/12 11:43:49;;;;;;;1999.90;999.90;;;27.70;93.10;;;;;;5070428;28;20048;-75
2022/07/12 11:46:15;;;;;;;1999.90;999.90;;;28.00;91.90;;;;;;5105699;28;20523;-74
2022/07/12 11:48:42;;;;;;;1999.90;999.90;;;28.20;91.80;;;;;;5071646;28;20469;-74
2022/07/12 11:51:12;;;;;;;1999.90;999.90;;;28.20;90.70;;;;;;5083942;28;20038;-74
2022/07/12 11:53:38;;;;;;;1999.90;999.90;;;28.30;91.00;;;;;;5059847;28;20040;-75
2022/07/12 11:56:06;;;;;;;1999.90;999.90;;;28.40;91.10;;;;;;5091681;28;20032;-74
2022/07/12 11:58:34;;;;;;;1999.90;999.90;;;28.50;91.00;;;;;;5059041;28;20033;-74
2022/07/12 12:01:00;;;;;;;1999.90;999.90;;;28.40;91.20;;;;;;5072263;28;20036;-74
2022/07/12 12:03:26;;;;;;;1999.90;999.90;;;28.30;92.40;;;;;;5068935;28;20528;-74
2022/07/12 12:05:56;;;;;;;1999.90;999.90;;;28.30;92.00;;;;;;5080080;28;20039;-74
2022/07/12 12:08:23;;;;;;;1999.90;999.90;;;28.60;92.40;;;;;;5046838;28;20046;-74
2022/07/12 12:11:07;;;;;;;1999.90;999.90;;;28.70;91.80;;;;;;5041506;28;20076;-74
2022/07/12 12:13:33;;;;;;;1999.90;999.90;;;28.80;90.20;;;;;;5094339;28;20040;-74